createdAt,value
2018-11-25T00:02:26.657Z,3.30
2018-11-25T00:07:30.195Z,3.40
2018-11-25T00:12:28.219Z,3.40
2018-11-25T00:17:29.378Z,3.50
2018-11-25T00:22:30.061Z,3.50
2018-11-25T00:27:31.049Z,3.50
2018-11-25T00:32:34.806Z,3.50
2018-11-25T00:37:35.455Z,3.50
2018-11-25T00:42:36.149Z,3.50
2018-11-25T00:47:37.400Z,3.50
2018-11-25T00:52:38.478Z,3.60
2018-11-25T00:57:39.073Z,3.60
2018-11-25T01:02:39.622Z,3.60
2018-11-25T01:07:40.532Z,3.60
2018-11-25T01:12:41.383Z,3.60
2018-11-25T01:17:42.786Z,3.60
2018-11-25T01:22:44.353Z,3.50
2018-11-25T01:27:45.242Z,3.30
2018-11-25T01:32:45.762Z,3.20
2018-11-25T01:37:46.635Z,3.00
2018-11-25T01:42:47.246Z,2.90
2018-11-25T01:47:48.015Z,2.80
2018-11-25T01:52:48.806Z,2.70
2018-11-25T01:57:49.483Z,2.60
2018-11-25T02:02:50.439Z,2.40
2018-11-25T02:07:51.024Z,2.20
2018-11-25T02:12:51.819Z,2.10
2018-11-25T02:17:52.814Z,2.00
2018-11-25T02:22:54.748Z,1.90
2018-11-25T02:27:55.390Z,1.80
2018-11-25T02:32:56.075Z,1.70
2018-11-25T02:37:57.023Z,1.50
2018-11-25T02:42:58.525Z,1.40
2018-11-25T02:47:58.889Z,1.30
2018-11-25T02:53:02.852Z,1.20
2018-11-25T02:58:03.664Z,1.10
2018-11-25T03:03:04.312Z,1.00
2018-11-25T03:08:05.113Z,0.90
2018-11-25T03:13:06.059Z,0.80
2018-11-25T03:18:07.358Z,0.80
2018-11-25T03:23:08.103Z,0.80
2018-11-25T03:28:08.838Z,0.80
2018-11-25T03:33:09.804Z,0.70
2018-11-25T03:38:10.516Z,0.70
2018-11-25T03:43:11.201Z,0.70
2018-11-25T03:48:11.736Z,0.60
2018-11-25T03:53:12.481Z,0.60
2018-11-25T03:58:12.735Z,0.50
2018-11-25T04:03:13.276Z,0.50
2018-11-25T04:08:13.944Z,0.40
2018-11-25T04:13:14.800Z,0.40
2018-11-25T04:18:15.200Z,0.30
2018-11-25T04:23:16.125Z,0.20
2018-11-25T04:28:16.748Z,0.20
2018-11-25T04:33:17.549Z,0.20
2018-11-25T04:38:18.110Z,0.20
2018-11-25T04:43:18.858Z,0.20
2018-11-25T04:48:19.718Z,0.30
2018-11-25T04:53:20.332Z,0.30
2018-11-25T04:58:21.599Z,0.20
2018-11-25T05:03:22.409Z,0.20
2018-11-25T05:08:23.126Z,0.30
2018-11-25T05:13:23.681Z,0.40
2018-11-25T05:18:24.397Z,0.50
2018-11-25T05:23:25.102Z,0.50
2018-11-25T05:28:25.904Z,0.40
2018-11-25T05:33:26.483Z,0.40
2018-11-25T05:38:27.241Z,0.40
2018-11-25T05:43:28.065Z,0.40
2018-11-25T05:48:28.769Z,0.30
2018-11-25T05:53:29.351Z,0.30
2018-11-25T05:58:30.090Z,0.30
2018-11-25T06:03:30.832Z,0.30
2018-11-25T06:08:31.340Z,0.30
2018-11-25T06:13:32.430Z,0.40
2018-11-25T06:18:33.120Z,0.40
2018-11-25T06:23:33.836Z,0.50
2018-11-25T06:28:34.788Z,0.50
2018-11-25T06:33:35.492Z,0.40
2018-11-25T06:38:36.044Z,0.40
2018-11-25T06:43:36.559Z,0.40
2018-11-25T06:48:37.450Z,0.30
2018-11-25T06:53:38.485Z,0.30
2018-11-25T06:58:39.190Z,0.20
2018-11-25T07:03:40.167Z,0.20
2018-11-25T07:08:40.823Z,0.20
2018-11-25T07:13:41.758Z,0.20
2018-11-25T07:18:42.395Z,0.20
2018-11-25T07:23:43.047Z,0.20
2018-11-25T07:28:43.998Z,0.20
2018-11-25T07:33:44.696Z,0.20
2018-11-25T07:38:45.297Z,0.20
2018-11-25T07:43:46.305Z,0.30
2018-11-25T07:48:46.953Z,0.40
2018-11-25T07:53:47.842Z,0.70
2018-11-25T07:58:48.835Z,1.00
2018-11-25T08:03:49.391Z,1.50
2018-11-25T08:08:50.338Z,2.00
2018-11-25T08:13:51.017Z,2.50
2018-11-25T08:18:51.718Z,3.10
2018-11-25T08:23:52.395Z,3.80
2018-11-25T08:28:53.317Z,4.40
2018-11-25T08:33:53.929Z,4.80
2018-11-25T08:38:54.786Z,5.30
2018-11-25T08:43:55.686Z,5.70
2018-11-25T08:48:56.279Z,5.90
2018-11-25T08:53:56.927Z,6.20
2018-11-25T08:58:57.937Z,6.50
2018-11-25T09:03:58.459Z,6.70
2018-11-25T09:08:59.269Z,7.00
2018-11-25T09:14:16.162Z,7.10
2018-11-25T09:19:24.840Z,7.30
2018-11-25T09:24:27.377Z,7.60
2018-11-25T09:29:30.203Z,7.80
2018-11-25T09:34:30.908Z,8.10
2018-11-25T09:39:34.418Z,8.50
2018-11-25T09:44:35.981Z,8.80
2018-11-25T09:49:37.082Z,9.20
2018-11-25T09:54:38.457Z,9.50
2018-11-25T10:00:11.641Z,9.80
2018-11-25T10:05:14.733Z,10.10
2018-11-25T10:10:19.159Z,10.10
2018-11-25T10:15:25.460Z,10.20
2018-11-25T10:20:27.932Z,10.40
2018-11-25T10:25:45.356Z,10.60
2018-11-25T10:30:48.023Z,10.60
2018-11-25T10:35:49.101Z,10.90
2018-11-25T10:41:30.720Z,11.00
2018-11-25T10:46:31.399Z,11.10
2018-11-25T10:51:32.870Z,11.20
2018-11-25T10:56:33.986Z,11.40
2018-11-25T11:01:51.079Z,11.50
2018-11-25T11:07:03.097Z,11.50
2018-11-25T11:12:04.393Z,11.70
2018-11-25T11:17:38.687Z,11.70
2018-11-25T11:22:48.013Z,11.70
2018-11-25T11:27:50.679Z,11.80
2018-11-25T11:32:51.738Z,11.90
2018-11-25T11:38:23.821Z,12.00
2018-11-25T11:43:33.396Z,12.00
2018-11-25T11:48:55.883Z,12.00
2018-11-25T11:53:57.025Z,11.90
2018-11-25T11:59:16.669Z,12.00
2018-11-25T12:04:18.094Z,12.00
2018-11-25T12:14:43.633Z,11.80
2018-11-25T12:19:54.029Z,11.70
2018-11-25T12:24:56.398Z,11.70
2018-11-25T12:29:57.207Z,11.80
2018-11-25T12:34:58.117Z,11.80
2018-11-25T12:40:18.495Z,11.90
2018-11-25T12:45:19.482Z,12.00
2018-11-25T12:50:21.532Z,12.20
2018-11-25T12:55:27.727Z,12.60
2018-11-25T13:00:33.803Z,12.80
2018-11-25T13:05:36.784Z,12.90
2018-11-25T13:11:06.968Z,12.90
2018-11-25T13:16:20.732Z,13.00
2018-11-25T13:21:56.210Z,13.20
2018-11-25T13:26:58.312Z,13.60
2018-11-25T13:31:59.056Z,13.40
2018-11-25T13:36:59.744Z,13.40
2018-11-25T13:42:03.861Z,13.50
2018-11-25T13:47:16.610Z,13.70
2018-11-25T13:52:18.774Z,13.60
2018-11-25T13:57:19.686Z,13.20
2018-11-25T14:02:20.358Z,13.20
2018-11-25T14:07:21.492Z,12.80
2018-11-25T14:12:33.616Z,12.40
2018-11-25T14:17:47.716Z,12.20
2018-11-25T14:29:46.871Z,11.60
2018-11-25T14:35:11.885Z,11.40
2018-11-25T14:40:44.024Z,10.80
2018-11-25T14:45:49.067Z,10.30
2018-11-25T14:56:19.982Z,8.70
2018-11-25T15:01:20.640Z,7.90
2018-11-25T15:06:25.075Z,7.40
2018-11-25T15:11:22.334Z,6.90
2018-11-25T15:16:23.236Z,6.60
2018-11-25T15:21:28.626Z,6.30
2018-11-25T15:26:29.555Z,6.20
2018-11-25T15:31:30.662Z,6.10
2018-11-25T15:36:32.361Z,6.00
2018-11-25T15:41:33.070Z,5.90
2018-11-25T15:46:35.512Z,5.90
2018-11-25T15:51:37.373Z,5.80
2018-11-25T15:56:39.361Z,5.70
2018-11-25T16:01:40.133Z,5.90
2018-11-25T16:06:43.094Z,5.80
2018-11-25T16:11:45.478Z,5.90
2018-11-25T16:16:48.235Z,5.90
2018-11-25T16:21:49.042Z,5.80
2018-11-25T16:26:52.184Z,5.80
2018-11-25T16:31:54.510Z,5.80
2018-11-25T16:36:57.107Z,5.70
2018-11-25T16:41:59.169Z,5.70
2018-11-25T16:47:01.864Z,5.70
2018-11-25T16:52:05.441Z,5.70
2018-11-25T16:57:07.734Z,5.60
2018-11-25T17:02:09.454Z,5.50
2018-11-25T17:07:12.794Z,5.50
2018-11-25T17:12:19.248Z,5.50
2018-11-25T17:17:24.121Z,5.50
2018-11-25T17:22:27.325Z,5.40
2018-11-25T17:27:29.891Z,5.30
2018-11-25T17:32:32.762Z,5.20
2018-11-25T17:37:35.401Z,5.20
2018-11-25T17:42:37.950Z,5.10
2018-11-25T17:47:41.154Z,5.10
2018-11-25T17:52:44.624Z,5.10
2018-11-25T17:57:48.103Z,5.10
2018-11-25T18:02:51.542Z,5.00
2018-11-25T18:07:54.777Z,5.00
2018-11-25T18:12:57.910Z,5.00
2018-11-25T18:18:01.253Z,5.00
2018-11-25T18:23:01.818Z,5.00
2018-11-25T18:28:02.591Z,5.00
2018-11-25T18:33:03.221Z,5.00
2018-11-25T18:38:04.055Z,5.00
2018-11-25T18:43:05.081Z,5.00
2018-11-25T18:48:07.668Z,5.00
2018-11-25T18:53:10.319Z,5.00
2018-11-25T18:58:12.110Z,5.00
2018-11-25T19:03:13.142Z,5.10
2018-11-25T19:08:14.264Z,5.10
2018-11-25T19:13:15.234Z,5.10
2018-11-25T19:18:15.777Z,5.10
2018-11-25T19:23:16.643Z,5.10
2018-11-25T19:28:17.406Z,5.20
2018-11-25T19:33:18.264Z,5.20
2018-11-25T19:38:19.510Z,5.20
2018-11-25T19:43:20.458Z,5.20
2018-11-25T19:48:21.295Z,5.20
2018-11-25T19:53:21.937Z,5.20
2018-11-25T19:58:22.779Z,5.20
2018-11-25T20:03:23.816Z,5.30
2018-11-25T20:08:24.271Z,5.20
2018-11-25T20:13:25.190Z,5.20
2018-11-25T20:18:25.826Z,5.30
2018-11-25T20:23:26.828Z,5.30
2018-11-25T20:28:27.777Z,5.30
2018-11-25T20:33:34.607Z,5.30
2018-11-25T20:38:42.297Z,5.30
2018-11-25T20:43:44.720Z,5.20
2018-11-25T20:48:46.346Z,5.20
2018-11-25T20:53:52.309Z,5.20
2018-11-25T20:58:53.219Z,5.20
2018-11-25T21:03:53.954Z,5.30
2018-11-25T21:08:55.350Z,5.30
2018-11-25T21:13:56.216Z,5.20
2018-11-25T21:18:57.062Z,5.10
2018-11-25T21:23:57.790Z,5.10
2018-11-25T21:29:00.068Z,5.10
2018-11-25T21:34:00.310Z,5.00
2018-11-25T21:39:01.008Z,5.00
2018-11-25T21:44:01.597Z,5.00
2018-11-25T21:49:02.175Z,4.90
2018-11-25T21:54:02.990Z,4.90
2018-11-25T21:59:03.825Z,4.80
2018-11-25T22:04:04.733Z,4.80
2018-11-25T22:09:09.321Z,4.80
2018-11-25T22:14:09.842Z,4.80
2018-11-25T22:19:10.565Z,4.70
2018-11-25T22:24:11.144Z,4.70
2018-11-25T22:29:12.243Z,4.70
2018-11-25T22:34:12.987Z,4.60
2018-11-25T22:39:16.610Z,4.60
2018-11-25T22:44:17.235Z,4.60
2018-11-25T22:49:17.962Z,4.60
2018-11-25T22:54:18.812Z,4.60
2018-11-25T22:59:19.615Z,4.60
2018-11-25T23:04:31.801Z,4.60
2018-11-25T23:09:32.491Z,4.60
2018-11-25T23:14:33.556Z,4.60
2018-11-25T23:19:34.468Z,4.60
2018-11-25T23:24:35.126Z,4.60
2018-11-25T23:29:36.058Z,4.60
2018-11-25T23:34:37.158Z,4.60
2018-11-25T23:39:37.986Z,4.60
2018-11-25T23:44:38.682Z,4.50
2018-11-25T23:49:39.522Z,4.60
2018-11-25T23:54:40.298Z,4.50
2018-11-25T23:59:40.898Z,4.50
